Time;durP1;ratioP1;P1;durP2;ratioP2;P2;SDS_P1;SDS_P2;PMS_P1;PMS_P2;Temp;Humidity;BMP_temperature;BMP_pressure;BME280_temperature;BME280_humidity;BME280_pressure;Samples;Min_cycle;Max_cycle;Signal;HPM_P1;HPM_P2
2021/12/26 00:01:52;;;;;;;1.20;1.00;;;5.70;98.00;;;;;;5072964;28;20542;-69
2021/12/26 00:04:19;;;;;;;1.60;1.33;;;5.70;98.00;;;;;;5072957;28;20494;-70
2021/12/26 00:06:50;;;;;;;1.10;1.00;;;5.70;98.00;;;;;;5072739;28;20537;-70
2021/12/26 00:09:19;;;;;;;1.20;1.10;;;5.70;98.00;;;;;;5072445;28;20543;-70
2021/12/26 00:11:46;;;;;;;1.57;1.30;;;5.70;98.00;;;;;;5072551;28;21031;-70
2021/12/26 00:14:15;;;;;;;1.30;1.10;;;5.70;98.00;;;;;;5072449;28;20498;-70
2021/12/26 00:16:43;;;;;;;1.37;1.30;;;5.70;98.00;;;;;;5072098;28;20527;-70
2021/12/26 00:19:10;;;;;;;1.10;0.90;;;5.80;98.00;;;;;;5072389;28;20467;-70
2021/12/26 00:21:37;;;;;;;1.60;1.57;;;5.80;98.00;;;;;;5072159;28;20861;-70
2021/12/26 00:24:04;;;;;;;1.20;1.00;;;5.70;98.00;;;;;;5071951;28;20495;-70
2021/12/26 00:26:33;;;;;;;1.30;1.00;;;5.80;98.00;;;;;;5071983;28;20525;-70
2021/12/26 00:29:01;;;;;;;1.10;1.00;;;5.80;98.00;;;;;;5071192;28;20944;-70
2021/12/26 00:31:28;;;;;;;1.57;1.10;;;5.90;98.00;;;;;;5070782;28;20515;-69
2021/12/26 00:33:55;;;;;;;1.40;1.20;;;5.90;98.00;;;;;;5071869;28;20447;-70
2021/12/26 00:36:22;;;;;;;1.20;1.10;;;6.00;98.00;;;;;;5071950;28;20452;-70
2021/12/26 00:38:49;;;;;;;1.10;1.00;;;6.00;98.00;;;;;;5071974;28;20841;-70
2021/12/26 00:41:16;;;;;;;1.10;1.00;;;6.00;98.00;;;;;;5071818;28;20535;-71
2021/12/26 00:43:45;;;;;;;1.10;0.90;;;6.00;98.00;;;;;;5071868;28;20542;-70
2021/12/26 00:46:12;;;;;;;1.20;1.03;;;6.00;98.00;;;;;;5071930;28;20479;-70
2021/12/26 00:48:39;;;;;;;1.13;1.10;;;5.90;98.00;;;;;;5072075;28;20551;-70
2021/12/26 00:51:08;;;;;;;1.20;1.07;;;5.80;98.00;;;;;;5071681;28;20962;-70
2021/12/26 00:53:34;;;;;;;1.20;1.10;;;5.80;98.00;;;;;;5071821;28;20480;-70
2021/12/26 00:56:01;;;;;;;1.20;1.20;;;5.80;98.00;;;;;;5071698;28;20503;-70
2021/12/26 00:58:29;;;;;;;2.70;1.97;;;5.80;98.00;;;;;;5071793;28;20539;-70
2021/12/26 01:00:58;;;;;;;1.10;1.00;;;5.80;98.00;;;;;;5071598;28;20460;-70
2021/12/26 01:03:26;;;;;;;1.10;0.90;;;5.70;98.00;;;;;;5071802;28;21000;-69
2021/12/26 01:06:09;;;;;;;1.50;1.43;;;5.60;98.00;;;;;;5071326;28;20486;-70
2021/12/26 01:08:40;;;;;;;1.10;1.00;;;5.60;98.00;;;;;;5069806;28;20470;-69
2021/12/26 01:11:18;;;;;;;2.07;1.53;;;5.60;98.00;;;;;;5071736;28;20892;-70
2021/12/26 01:13:46;;;;;;;1.40;1.13;;;5.60;98.00;;;;;;5071687;28;20460;-70
2021/12/26 01:16:16;;;;;;;1.10;0.90;;;5.60;98.00;;;;;;5071603;28;20456;-70
2021/12/26 01:18:49;;;;;;;1.67;1.30;;;5.70;98.00;;;;;;5071653;28;20465;-70
2021/12/26 01:21:18;;;;;;;1.10;0.90;;;5.70;98.00;;;;;;5071739;28;20887;-70
2021/12/26 01:23:47;;;;;;;1.10;0.90;;;5.70;98.00;;;;;;5071793;28;20788;-70
2021/12/26 01:26:14;;;;;;;1.40;1.20;;;5.70;98.00;;;;;;5071457;28;20568;-69
2021/12/26 01:28:41;;;;;;;1.40;1.30;;;5.70;98.00;;;;;;5071779;28;20525;-70
2021/12/26 01:31:08;;;;;;;1.80;1.07;;;5.70;98.00;;;;;;5070611;28;20500;-70
2021/12/26 01:33:37;;;;;;;1.60;1.40;;;5.70;98.00;;;;;;5071410;28;20907;-69
2021/12/26 01:36:05;;;;;;;1.97;1.43;;;5.70;98.00;;;;;;5071406;28;20456;-69
2021/12/26 01:38:32;;;;;;;2.03;1.20;;;5.70;98.00;;;;;;5071487;28;20868;-69
2021/12/26 01:41:01;;;;;;;1.57;1.27;;;5.70;98.00;;;;;;5073033;28;20480;-69
2021/12/26 01:43:35;;;;;;;1.10;1.00;;;5.70;98.00;;;;;;5075401;28;20467;-70
2021/12/26 01:46:02;;;;;;;1.20;1.10;;;5.60;98.00;;;;;;5075134;28;20492;-70
2021/12/26 01:48:29;;;;;;;1.20;1.00;;;5.70;98.00;;;;;;5075143;28;20486;-69
2021/12/26 01:50:58;;;;;;;1.30;1.10;;;5.60;98.00;;;;;;5074886;28;20497;-71
2021/12/26 01:53:35;;;;;;;1.10;1.03;;;5.70;98.00;;;;;;5075117;28;20457;-71
2021/12/26 01:56:02;;;;;;;1.43;1.17;;;5.90;98.00;;;;;;5074933;28;20964;-70
2021/12/26 01:58:31;;;;;;;1.20;1.10;;;5.80;98.00;;;;;;5074813;28;20526;-69
2021/12/26 02:01:00;;;;;;;1.63;1.43;;;5.80;98.00;;;;;;5074589;28;20483;-70
2021/12/26 02:03:28;;;;;;;1.40;1.00;;;5.70;98.00;;;;;;5074555;28;20513;-69
2021/12/26 02:05:57;;;;;;;1.10;0.90;;;5.70;98.00;;;;;;5074229;28;20559;-69
2021/12/26 02:08:24;;;;;;;1.10;0.90;;;5.80;98.00;;;;;;5074635;28;20536;-69
2021/12/26 02:10:53;;;;;;;2.43;1.63;;;5.90;98.00;;;;;;5075675;28;20494;-70
2021/12/26 02:13:21;;;;;;;1.10;1.00;;;5.80;98.00;;;;;;5074849;28;20437;-69
2021/12/26 02:15:51;;;;;;;1.10;1.00;;;5.90;98.00;;;;;;5074682;28;20493;-69
2021/12/26 02:18:19;;;;;;;1.30;1.30;;;5.90;98.00;;;;;;5073211;28;20956;-70
2021/12/26 02:21:04;;;;;;;1.20;1.20;;;6.00;98.00;;;;;;5074594;28;20520;-70
2021/12/26 02:23:39;;;;;;;1.10;1.00;;;6.10;98.00;;;;;;5074585;28;20966;-69
2021/12/26 02:28:52;;;;;;;1.10;1.00;;;6.40;98.00;;;;;;5074587;28;20442;-69
2021/12/26 02:31:19;;;;;;;2.50;1.63;;;6.40;98.00;;;;;;5074258;28;20458;-69
2021/12/26 02:33:46;;;;;;;1.20;1.03;;;6.30;98.00;;;;;;5074482;28;20469;-70
2021/12/26 02:36:14;;;;;;;1.10;1.07;;;6.10;98.00;;;;;;5074450;28;20551;-70
2021/12/26 02:38:42;;;;;;;1.87;1.17;;;6.00;98.00;;;;;;5074484;28;20487;-70
2021/12/26 02:41:09;;;;;;;1.10;0.90;;;6.00;98.00;;;;;;5074289;28;20462;-70
2021/12/26 02:43:37;;;;;;;1.30;1.30;;;6.10;98.00;;;;;;5074323;28;20499;-70
2021/12/26 02:46:06;;;;;;;1.20;1.00;;;6.10;98.00;;;;;;5074265;28;20456;-69
2021/12/26 02:48:36;;;;;;;1.43;1.33;;;6.10;98.00;;;;;;5074227;28;20493;-70
2021/12/26 02:51:05;;;;;;;2.20;1.60;;;6.10;98.00;;;;;;5074256;28;20489;-70
2021/12/26 02:53:35;;;;;;;1.10;1.10;;;6.00;98.00;;;;;;5073360;28;20484;-69
2021/12/26 02:56:04;;;;;;;2.60;1.57;;;6.10;98.00;;;;;;5074186;28;20859;-69
2021/12/26 02:58:31;;;;;;;7.13;3.53;;;6.00;98.00;;;;;;5074065;28;20506;-69
2021/12/26 03:01:01;;;;;;;1.20;1.10;;;6.10;98.00;;;;;;5074066;28;20456;-70
2021/12/26 03:03:29;;;;;;;1.20;1.20;;;6.10;98.00;;;;;;5073981;28;20483;-69
2021/12/26 03:06:01;;;;;;;1.10;0.90;;;6.10;98.00;;;;;;5072473;28;20488;-69
2021/12/26 03:08:28;;;;;;;1.97;1.47;;;6.00;98.00;;;;;;5073643;28;21692;-69
2021/12/26 03:10:57;;;;;;;1.20;1.17;;;5.90;98.00;;;;;;5073753;28;20870;-69
2021/12/26 03:13:24;;;;;;;1.27;1.10;;;5.80;98.00;;;;;;5073382;28;20462;-70
2021/12/26 03:15:51;;;;;;;1.10;1.00;;;5.90;98.00;;;;;;5073547;28;20540;-69
2021/12/26 03:18:19;;;;;;;2.13;1.40;;;5.90;98.00;;;;;;5073391;28;20876;-70
2021/12/26 03:20:50;;;;;;;1.20;1.00;;;5.80;98.00;;;;;;5073424;28;20493;-70
2021/12/26 03:23:19;;;;;;;1.10;1.00;;;5.90;98.00;;;;;;5073272;28;20486;-70
2021/12/26 03:25:49;;;;;;;1.20;1.00;;;5.80;98.00;;;;;;5072228;28;20460;-69
2021/12/26 03:28:18;;;;;;;1.43;1.37;;;5.80;98.00;;;;;;5055714;28;20571;-70
2021/12/26 03:30:46;;;;;;;1.17;1.03;;;5.70;98.00;;;;;;5073212;28;20456;-69
2021/12/26 03:33:14;;;;;;;1.50;1.37;;;5.80;98.00;;;;;;5073152;28;21018;-69
2021/12/26 03:35:42;;;;;;;1.20;1.00;;;6.00;98.00;;;;;;5072985;28;20518;-69
2021/12/26 03:38:11;;;;;;;1.20;1.10;;;6.10;98.00;;;;;;5073390;28;20994;-69
2021/12/26 03:40:38;;;;;;;1.10;0.93;;;6.10;98.00;;;;;;5073062;28;20496;-70
2021/12/26 03:43:06;;;;;;;1.50;1.10;;;6.00;98.00;;;;;;5071939;28;20482;-70
2021/12/26 03:45:35;;;;;;;1.33;1.17;;;5.90;98.00;;;;;;5072945;28;20494;-70
2021/12/26 03:48:02;;;;;;;1.10;0.90;;;5.90;98.00;;;;;;5072856;28;20556;-69
2021/12/26 03:50:30;;;;;;;1.10;0.90;;;5.70;98.00;;;;;;5073054;28;20510;-69
2021/12/26 03:52:58;;;;;;;1.90;1.73;;;5.80;98.00;;;;;;5072798;28;20931;-70
2021/12/26 03:55:26;;;;;;;1.10;0.90;;;5.80;98.00;;;;;;5072943;28;20459;-69
2021/12/26 03:57:55;;;;;;;1.50;1.10;;;5.70;98.00;;;;;;5072877;28;20492;-69
2021/12/26 04:00:24;;;;;;;1.73;1.10;;;5.70;98.00;;;;;;5072795;28;20481;-69
2021/12/26 04:02:52;;;;;;;1.50;1.10;;;5.80;98.00;;;;;;5072631;28;20465;-70
2021/12/26 04:05:20;;;;;;;1.77;1.30;;;5.80;98.00;;;;;;5072802;28;20488;-69
2021/12/26 04:07:47;;;;;;;2.00;1.17;;;5.90;98.00;;;;;;5072547;28;20571;-69
2021/12/26 04:10:17;;;;;;;1.10;0.90;;;5.90;98.00;;;;;;5072158;28;20497;-69
2021/12/26 04:12:47;;;;;;;1.10;1.00;;;5.90;98.00;;;;;;5070670;28;20531;-69
2021/12/26 04:15:19;;;;;;;1.40;1.10;;;5.80;98.00;;;;;;5072626;28;20461;-70
2021/12/26 04:17:47;;;;;;;1.60;1.20;;;5.80;98.00;;;;;;5072490;28;20452;-69
2021/12/26 04:20:16;;;;;;;1.10;1.00;;;5.80;98.00;;;;;;5072503;28;20501;-70
2021/12/26 04:22:44;;;;;;;1.20;1.20;;;5.80;98.00;;;;;;5072343;28;20454;-70
2021/12/26 04:25:11;;;;;;;1.10;0.97;;;5.70;98.00;;;;;;5072229;28;20459;-69
2021/12/26 04:27:39;;;;;;;1.10;1.00;;;5.70;98.00;;;;;;5071873;28;20518;-71
2021/12/26 04:30:10;;;;;;;1.10;0.90;;;5.70;98.00;;;;;;5072135;28;20514;-69
2021/12/26 04:32:38;;;;;;;1.30;1.10;;;5.70;98.00;;;;;;5072226;28;20532;-69
2021/12/26 04:35:06;;;;;;;1.40;1.27;;;5.90;98.00;;;;;;5070847;28;20486;-69
2021/12/26 04:37:34;;;;;;;1.33;1.10;;;6.00;98.00;;;;;;5071915;28;20501;-70
2021/12/26 04:40:02;;;;;;;1.30;1.10;;;6.00;98.00;;;;;;5072015;28;20457;-69
2021/12/26 04:42:29;;;;;;;1.10;1.00;;;6.00;98.00;;;;;;5071877;28;20486;-69
2021/12/26 04:44:56;;;;;;;1.80;1.37;;;6.10;98.00;;;;;;5072118;28;20998;-70
2021/12/26 04:47:23;;;;;;;1.40;1.30;;;6.10;98.00;;;;;;5071602;28;20967;-70
2021/12/26 04:49:50;;;;;;;1.27;1.20;;;6.10;98.00;;;;;;5072190;28;20996;-69
2021/12/26 04:52:17;;;;;;;1.10;1.00;;;6.00;98.00;;;;;;5070672;28;20892;-69
2021/12/26 04:54:45;;;;;;;1.20;1.10;;;5.90;98.00;;;;;;5070734;28;20485;-70
2021/12/26 04:57:12;;;;;;;1.67;1.30;;;5.80;98.00;;;;;;5071810;28;20456;-69
2021/12/26 04:59:40;;;;;;;1.40;1.20;;;5.80;98.00;;;;;;5071843;28;20940;-69
2021/12/26 05:02:09;;;;;;;1.10;0.90;;;5.80;98.00;;;;;;5071773;28;20589;-69
2021/12/26 05:04:37;;;;;;;1.20;1.00;;;5.80;98.00;;;;;;5072071;28;20459;-70
2021/12/26 05:07:05;;;;;;;3.63;1.57;;;5.90;98.00;;;;;;5071684;28;20453;-69
2021/12/26 05:09:32;;;;;;;1.10;1.00;;;5.90;98.00;;;;;;5071579;28;20522;-69
2021/12/26 05:12:00;;;;;;;1.30;1.23;;;5.90;98.00;;;;;;5071688;28;20495;-70
2021/12/26 05:14:27;;;;;;;1.87;1.53;;;5.90;98.00;;;;;;5071417;28;20491;-69
2021/12/26 05:16:54;;;;;;;9.40;1.30;;;5.90;98.00;;;;;;5071464;28;20535;-69
2021/12/26 05:19:21;;;;;;;1.10;1.10;;;5.80;98.00;;;;;;5071706;28;20453;-69
2021/12/26 05:21:48;;;;;;;1.10;1.00;;;5.80;98.00;;;;;;5071589;28;20954;-70
2021/12/26 05:24:15;;;;;;;1.43;1.40;;;5.80;98.00;;;;;;5071636;28;20460;-69
2021/12/26 05:26:42;;;;;;;1.10;0.97;;;5.80;98.00;;;;;;5071536;28;20524;-70
2021/12/26 05:29:10;;;;;;;1.20;1.10;;;5.90;98.00;;;;;;5070400;28;20481;-70
2021/12/26 05:31:40;;;;;;;1.57;1.50;;;5.80;98.00;;;;;;5071490;28;20494;-70
2021/12/26 05:34:07;;;;;;;1.70;1.20;;;5.80;98.00;;;;;;5071508;28;20507;-70
2021/12/26 05:36:34;;;;;;;1.57;1.10;;;5.90;98.00;;;;;;5071309;28;20510;-71
2021/12/26 05:39:03;;;;;;;1.10;1.00;;;5.90;98.00;;;;;;5071551;28;20509;-69
2021/12/26 05:41:32;;;;;;;1.10;0.90;;;5.90;98.00;;;;;;5070148;28;20458;-69
2021/12/26 05:43:59;;;;;;;1.30;1.10;;;5.90;98.00;;;;;;5071632;28;20457;-70
2021/12/26 05:46:28;;;;;;;3.00;1.80;;;5.90;98.00;;;;;;5071596;28;20492;-70
2021/12/26 05:48:55;;;;;;;1.40;1.10;;;5.90;98.00;;;;;;5071333;28;20525;-70
2021/12/26 05:51:22;;;;;;;1.10;0.90;;;5.80;98.00;;;;;;5071479;28;20495;-69
2021/12/26 05:53:49;;;;;;;2.13;1.20;;;5.70;98.00;;;;;;5071340;28;20547;-69
2021/12/26 05:56:16;;;;;;;1.80;1.57;;;5.80;98.00;;;;;;5071158;28;20486;-69
2021/12/26 05:58:43;;;;;;;1.10;0.90;;;5.80;98.00;;;;;;5071205;28;20549;-69
2021/12/26 06:01:10;;;;;;;1.20;1.10;;;5.80;98.00;;;;;;5071159;28;20559;-69
2021/12/26 06:03:41;;;;;;;1.40;1.27;;;5.80;98.00;;;;;;5070851;28;20490;-70
2021/12/26 06:06:08;;;;;;;1.20;1.10;;;5.70;98.00;;;;;;5071157;28;20513;-70
2021/12/26 06:08:35;;;;;;;2.10;1.20;;;5.70;98.00;;;;;;5070876;28;20488;-70
2021/12/26 06:11:02;;;;;;;1.70;1.20;;;5.90;98.00;;;;;;5071199;28;20856;-69
2021/12/26 06:13:31;;;;;;;1.97;1.00;;;5.90;98.00;;;;;;5070900;28;20548;-70
2021/12/26 06:15:59;;;;;;;1.50;1.10;;;5.90;98.00;;;;;;5071068;28;20451;-69
2021/12/26 06:18:26;;;;;;;1.10;1.00;;;5.90;98.00;;;;;;5070532;28;20453;-70
2021/12/26 06:20:54;;;;;;;1.53;1.30;;;5.80;98.00;;;;;;5070858;28;20521;-70
2021/12/26 06:23:21;;;;;;;1.20;1.20;;;5.80;98.00;;;;;;5070890;28;20498;-69
2021/12/26 06:25:48;;;;;;;1.10;1.00;;;5.70;98.00;;;;;;5071299;28;20485;-70
2021/12/26 06:28:15;;;;;;;1.20;1.07;;;5.70;98.00;;;;;;5072745;28;20507;-69
2021/12/26 06:30:42;;;;;;;1.20;1.10;;;5.70;98.00;;;;;;5074575;28;20545;-70
2021/12/26 06:33:10;;;;;;;1.10;0.90;;;5.70;98.00;;;;;;5074474;28;20551;-70
2021/12/26 06:35:39;;;;;;;1.77;1.13;;;5.70;98.00;;;;;;5073235;28;20495;-70
2021/12/26 06:38:07;;;;;;;1.10;0.90;;;5.70;98.00;;;;;;5074337;28;20459;-69
2021/12/26 06:40:35;;;;;;;1.10;0.90;;;5.70;98.00;;;;;;5074265;28;21033;-69
2021/12/26 06:43:02;;;;;;;1.10;1.03;;;5.90;98.00;;;;;;5073061;28;20521;-69
2021/12/26 06:45:29;;;;;;;1.10;1.00;;;5.90;98.00;;;;;;5074194;28;20517;-70
2021/12/26 06:48:01;;;;;;;3.67;1.33;;;5.90;98.00;;;;;;5073885;28;20560;-70
2021/12/26 06:50:29;;;;;;;1.93;1.30;;;5.80;98.00;;;;;;5074185;28;20489;-69
2021/12/26 06:52:57;;;;;;;1.10;1.00;;;5.70;98.00;;;;;;5074245;28;20456;-69
2021/12/26 06:55:25;;;;;;;1.10;0.90;;;5.70;98.00;;;;;;5073757;28;20508;-70
2021/12/26 06:57:52;;;;;;;1.30;1.00;;;5.60;98.00;;;;;;5073669;28;20490;-70
2021/12/26 07:00:19;;;;;;;1.10;1.03;;;5.60;98.00;;;;;;5073108;28;20453;-69
2021/12/26 07:02:47;;;;;;;1.10;1.07;;;5.50;98.00;;;;;;5073898;28;20453;-70
2021/12/26 07:05:14;;;;;;;1.10;1.00;;;5.50;98.00;;;;;;5073923;28;20508;-70
2021/12/26 07:07:42;;;;;;;1.10;1.00;;;5.50;98.00;;;;;;5073871;28;20487;-70
2021/12/26 07:10:10;;;;;;;1.60;1.23;;;5.60;98.00;;;;;;5074062;28;20500;-69
2021/12/26 07:12:39;;;;;;;1.10;1.00;;;5.70;98.00;;;;;;5073559;28;20492;-70
2021/12/26 07:15:07;;;;;;;3.33;1.40;;;5.70;98.00;;;;;;5074056;28;20522;-70
2021/12/26 07:17:34;;;;;;;2.67;1.40;;;5.60;98.00;;;;;;5073414;28;20464;-69
2021/12/26 07:20:01;;;;;;;1.10;1.00;;;5.60;98.00;;;;;;5073555;28;20480;-70
2021/12/26 07:22:31;;;;;;;1.10;1.00;;;5.60;98.00;;;;;;5073442;28;20448;-69
2021/12/26 07:24:59;;;;;;;1.20;1.10;;;5.60;98.00;;;;;;5072758;28;20462;-70
2021/12/26 07:27:26;;;;;;;1.20;1.10;;;5.60;98.00;;;;;;5072571;28;20498;-69
2021/12/26 07:29:58;;;;;;;1.20;1.10;;;5.60;98.00;;;;;;5072722;28;20574;-70
2021/12/26 07:32:25;;;;;;;1.10;1.00;;;5.70;98.00;;;;;;5073160;28;20460;-70
2021/12/26 07:34:53;;;;;;;3.10;1.57;;;5.60;98.00;;;;;;5073184;28;20881;-70
2021/12/26 07:37:20;;;;;;;2.60;1.40;;;5.70;98.00;;;;;;5072904;28;20487;-70
2021/12/26 07:39:47;;;;;;;1.30;1.10;;;5.70;98.00;;;;;;5072837;28;20451;-69
2021/12/26 07:42:14;;;;;;;1.50;1.10;;;5.70;98.00;;;;;;5073005;28;20459;-69
2021/12/26 07:44:41;;;;;;;1.30;1.30;;;5.70;98.00;;;;;;5072929;28;20463;-70
2021/12/26 07:47:10;;;;;;;1.47;1.23;;;5.90;98.00;;;;;;5072994;28;20549;-69
2021/12/26 07:49:37;;;;;;;4.37;1.90;;;6.00;98.00;;;;;;5072968;28;20850;-71
2021/12/26 07:52:11;;;;;;;1.30;1.20;;;6.00;98.00;;;;;;5072752;28;20526;-69
2021/12/26 07:54:39;;;;;;;2.17;1.70;;;6.00;98.00;;;;;;5072839;28;20484;-70
2021/12/26 07:57:07;;;;;;;3.10;1.30;;;5.90;98.00;;;;;;5072688;28;20449;-69
2021/12/26 07:59:34;;;;;;;1.73;1.10;;;5.90;98.00;;;;;;5072668;28;20510;-69
2021/12/26 08:02:03;;;;;;;1.20;1.00;;;5.90;98.00;;;;;;5072702;28;20542;-70
2021/12/26 08:04:31;;;;;;;1.10;1.10;;;6.00;98.00;;;;;;5072597;28;20456;-70
2021/12/26 08:07:00;;;;;;;1.27;1.23;;;6.00;98.00;;;;;;5072632;28;20485;-70
2021/12/26 08:09:27;;;;;;;1.20;1.10;;;6.00;98.00;;;;;;5072547;28;20491;-69
2021/12/26 08:11:54;;;;;;;1.10;1.00;;;6.00;98.00;;;;;;5072808;28;20498;-69
2021/12/26 08:14:22;;;;;;;1.70;1.60;;;6.10;98.00;;;;;;5072676;28;21015;-69
2021/12/26 08:16:49;;;;;;;1.30;1.20;;;6.10;98.00;;;;;;5072592;28;20824;-70
2021/12/26 08:19:16;;;;;;;1.10;0.93;;;6.10;98.00;;;;;;5072707;28;20947;-69
2021/12/26 08:21:44;;;;;;;1.77;1.40;;;6.10;98.00;;;;;;5072367;28;20554;-69
2021/12/26 08:24:11;;;;;;;1.10;0.90;;;6.10;98.00;;;;;;5072425;28;20445;-69
2021/12/26 08:26:38;;;;;;;1.20;1.20;;;6.20;98.00;;;;;;5071922;28;21010;-69
2021/12/26 08:29:06;;;;;;;2.17;1.30;;;6.30;98.00;;;;;;5071646;28;20541;-69
2021/12/26 08:31:33;;;;;;;1.97;1.10;;;6.30;98.00;;;;;;5054479;28;20547;-70
2021/12/26 08:34:04;;;;;;;1.50;1.40;;;6.20;98.00;;;;;;5072718;28;21129;-69
2021/12/26 08:36:31;;;;;;;1.10;1.00;;;6.20;98.00;;;;;;5071158;28;20848;-70
2021/12/26 08:39:03;;;;;;;1.10;1.00;;;6.20;98.00;;;;;;5072065;28;20481;-69
2021/12/26 08:41:30;;;;;;;1.20;1.20;;;6.30;98.00;;;;;;5072207;28;20946;-70
2021/12/26 08:43:57;;;;;;;1.10;0.90;;;6.30;98.00;;;;;;5071656;28;20865;-69
2021/12/26 08:46:24;;;;;;;1.10;0.90;;;6.40;98.00;;;;;;5071972;28;20544;-69
2021/12/26 08:48:51;;;;;;;2.33;1.07;;;6.40;98.00;;;;;;5071943;28;20575;-69
2021/12/26 08:51:20;;;;;;;1.50;1.10;;;6.40;98.00;;;;;;5070936;28;20496;-69
2021/12/26 08:53:47;;;;;;;1.20;1.10;;;6.40;98.00;;;;;;5071639;28;20491;-69
2021/12/26 08:56:18;;;;;;;2.80;1.30;;;6.40;98.00;;;;;;5072010;28;20544;-69
2021/12/26 08:58:45;;;;;;;1.10;1.00;;;6.50;98.00;;;;;;5071537;28;20866;-69
2021/12/26 09:01:12;;;;;;;1.20;1.20;;;6.50;98.00;;;;;;5071825;28;20539;-68
2021/12/26 09:03:40;;;;;;;1.40;1.20;;;6.50;98.00;;;;;;5071792;28;20462;-68
2021/12/26 09:06:08;;;;;;;1.10;1.00;;;6.40;98.00;;;;;;5071712;28;20459;-68
2021/12/26 09:08:35;;;;;;;1.73;1.10;;;6.40;98.00;;;;;;5071192;28;20468;-68
2021/12/26 09:11:02;;;;;;;4.40;1.87;;;6.40;98.00;;;;;;5070252;28;20582;-70
2021/12/26 09:13:35;;;;;;;1.57;1.00;;;6.50;98.00;;;;;;5070274;28;20459;-69
2021/12/26 09:16:03;;;;;;;1.97;1.20;;;6.40;98.00;;;;;;5071537;28;20483;-67
2021/12/26 09:18:30;;;;;;;1.17;1.10;;;6.50;98.00;;;;;;5071667;28;20463;-68
2021/12/26 09:20:57;;;;;;;2.23;1.63;;;6.50;98.00;;;;;;5071557;28;20519;-69
2021/12/26 09:23:24;;;;;;;1.10;1.00;;;6.60;98.00;;;;;;5070393;28;20467;-68
2021/12/26 09:25:51;;;;;;;1.20;1.13;;;6.70;98.00;;;;;;5069679;28;20460;-69
2021/12/26 09:28:18;;;;;;;1.20;1.07;;;6.60;98.00;;;;;;5067652;28;20530;-70
2021/12/26 09:30:47;;;;;;;1.10;0.90;;;6.60;98.00;;;;;;5068842;28;20885;-68
2021/12/26 09:33:19;;;;;;;1.10;1.00;;;6.60;98.00;;;;;;5068791;28;20490;-69
2021/12/26 09:35:46;;;;;;;1.23;1.07;;;6.70;98.00;;;;;;5068751;28;20508;-69
2021/12/26 09:38:20;;;;;;;4.93;1.33;;;6.80;98.00;;;;;;5068604;28;20457;-69
2021/12/26 09:40:49;;;;;;;1.20;1.03;;;6.70;98.00;;;;;;5068924;28;20473;-70
2021/12/26 09:43:16;;;;;;;1.10;0.90;;;6.80;98.00;;;;;;5068660;28;20528;-68
2021/12/26 09:45:43;;;;;;;1.20;1.13;;;6.80;98.00;;;;;;5068686;28;20494;-68
2021/12/26 09:48:12;;;;;;;1.50;1.10;;;6.80;98.00;;;;;;5068557;28;20995;-68
2021/12/26 09:50:39;;;;;;;1.30;1.20;;;6.90;98.00;;;;;;5066893;28;20580;-68
2021/12/26 09:53:06;;;;;;;1.20;1.10;;;6.90;98.00;;;;;;5068520;28;20605;-70
2021/12/26 09:55:33;;;;;;;1.10;1.00;;;7.00;98.00;;;;;;5068662;28;20877;-70
2021/12/26 09:58:00;;;;;;;1.40;1.23;;;7.00;98.00;;;;;;5068698;28;20513;-69
2021/12/26 10:00:31;;;;;;;1.50;1.27;;;7.00;98.00;;;;;;5066655;28;20493;-70
2021/12/26 10:03:24;;;;;;;3.60;1.37;;;7.00;98.00;;;;;;5071831;28;20457;-70
2021/12/26 10:06:03;;;;;;;1.40;1.20;;;6.90;98.00;;;;;;5070844;28;20493;-70
2021/12/26 10:08:32;;;;;;;1.10;1.00;;;7.00;98.00;;;;;;5071817;28;20473;-71
2021/12/26 10:11:12;;;;;;;1.60;1.30;;;6.90;98.00;;;;;;5072016;28;20496;-71
2021/12/26 10:13:42;;;;;;;1.10;1.00;;;7.00;98.00;;;;;;5071186;28;20464;-70
2021/12/26 10:16:09;;;;;;;1.10;0.90;;;7.00;98.00;;;;;;5072053;28;20486;-70
2021/12/26 10:18:39;;;;;;;1.20;1.20;;;7.00;98.00;;;;;;5071339;28;20503;-70
2021/12/26 10:21:25;;;;;;;1.73;1.20;;;7.10;98.00;;;;;;5071340;28;20456;-70
2021/12/26 10:23:53;;;;;;;1.13;1.00;;;7.30;98.00;;;;;;5052889;28;20464;-70
2021/12/26 10:26:21;;;;;;;1.10;1.00;;;7.40;98.00;;;;;;5071937;28;20503;-70
2021/12/26 10:29:13;;;;;;;1.10;0.90;;;7.30;98.00;;;;;;5069957;28;20460;-70
2021/12/26 10:31:45;;;;;;;1.20;1.10;;;7.30;98.00;;;;;;5071870;28;20457;-70
2021/12/26 10:34:22;;;;;;;1.53;1.23;;;7.30;98.00;;;;;;5071869;28;20538;-70
2021/12/26 10:36:51;;;;;;;1.40;1.10;;;7.30;98.00;;;;;;5071153;28;20463;-70
2021/12/26 10:39:20;;;;;;;1.10;0.90;;;7.30;98.00;;;;;;5071157;28;20871;-69
2021/12/26 10:41:49;;;;;;;1.40;1.10;;;7.30;98.00;;;;;;5071413;28;20463;-69
2021/12/26 10:44:31;;;;;;;1.43;1.30;;;7.30;98.00;;;;;;5071487;28;20489;-70
2021/12/26 10:47:00;;;;;;;1.67;1.57;;;7.30;98.00;;;;;;5071157;28;20482;-69
2021/12/26 10:49:38;;;;;;;1.10;0.90;;;7.40;98.00;;;;;;5069177;28;20601;-69
2021/12/26 10:52:12;;;;;;;1.17;1.00;;;7.40;98.00;;;;;;5070374;28;20542;-68
2021/12/26 10:54:41;;;;;;;1.10;1.00;;;7.40;98.00;;;;;;5071828;28;20464;-71
2021/12/26 10:57:14;;;;;;;1.13;1.03;;;7.50;98.00;;;;;;5071367;28;20478;-71
2021/12/26 10:59:44;;;;;;;1.10;1.10;;;7.50;98.00;;;;;;5063207;28;20493;-70
2021/12/26 11:02:21;;;;;;;1.10;0.93;;;7.50;98.00;;;;;;5071216;28;20462;-70
2021/12/26 11:05:03;;;;;;;1.20;1.10;;;7.60;98.00;;;;;;5071262;28;20456;-73
2021/12/26 11:07:39;;;;;;;1.10;1.00;;;7.70;98.00;;;;;;5071070;28;21043;-72
2021/12/26 11:10:11;;;;;;;1.30;1.07;;;7.70;98.00;;;;;;5071310;28;20497;-72
2021/12/26 11:12:41;;;;;;;1.40;1.23;;;7.90;98.00;;;;;;5070148;28;20542;-67
2021/12/26 11:15:10;;;;;;;1.10;0.90;;;8.00;98.00;;;;;;5070402;28;20458;-69
2021/12/26 11:17:42;;;;;;;1.57;1.30;;;8.10;98.00;;;;;;5071058;28;20463;-71
2021/12/26 11:20:18;;;;;;;1.23;1.00;;;8.20;98.00;;;;;;5070956;28;20455;-69
2021/12/26 11:22:50;;;;;;;1.20;1.10;;;8.10;98.00;;;;;;5070963;28;20500;-70
2021/12/26 11:25:17;;;;;;;1.10;0.90;;;8.30;98.00;;;;;;5070870;28;20504;-69
2021/12/26 11:27:44;;;;;;;1.10;1.00;;;8.30;98.00;;;;;;5070544;28;20487;-70
2021/12/26 11:30:11;;;;;;;1.10;0.90;;;8.20;98.00;;;;;;5070438;28;20580;-70
2021/12/26 11:32:40;;;;;;;1.10;0.97;;;8.30;98.00;;;;;;5070732;28;20493;-70
2021/12/26 11:35:08;;;;;;;1.53;1.47;;;8.30;98.00;;;;;;5070854;28;20454;-70
2021/12/26 11:37:38;;;;;;;1.60;1.30;;;8.30;98.00;;;;;;5072113;28;20455;-70
2021/12/26 11:40:08;;;;;;;1.10;0.90;;;8.20;98.00;;;;;;5072291;28;20532;-71
2021/12/26 11:43:12;;;;;;;1.10;1.00;;;8.30;98.00;;;;;;5070421;28;20550;-70
2021/12/26 11:45:46;;;;;;;1.50;1.30;;;8.30;98.00;;;;;;5064289;28;20550;-70
2021/12/26 11:48:45;;;;;;;1.43;1.37;;;8.20;98.00;;;;;;5070256;28;20491;-69
2021/12/26 11:51:28;;;;;;;1.20;1.10;;;8.30;98.00;;;;;;5067941;28;20498;-69
2021/12/26 11:54:18;;;;;;;1.20;1.10;;;8.40;98.00;;;;;;5070294;28;20947;-70
2021/12/26 11:57:01;;;;;;;1.10;0.90;;;8.30;98.00;;;;;;5063973;28;20578;-69
2021/12/26 11:59:50;;;;;;;1.10;1.00;;;8.20;98.00;;;;;;5070272;28;20872;-70
2021/12/26 12:02:35;;;;;;;1.40;1.20;;;8.20;98.00;;;;;;5068642;28;20461;-69
2021/12/26 12:05:11;;;;;;;1.50;1.20;;;8.20;98.00;;;;;;5070229;28;20504;-71
2021/12/26 12:07:54;;;;;;;1.50;1.03;;;8.30;98.00;;;;;;5069711;28;20514;-70
2021/12/26 12:10:46;;;;;;;1.10;1.00;;;8.40;98.00;;;;;;5069839;28;20544;-68
2021/12/26 12:13:35;;;;;;;1.73;1.03;;;8.50;98.00;;;;;;5069764;28;20502;-70
2021/12/26 12:16:06;;;;;;;1.67;1.20;;;8.50;98.00;;;;;;5069993;28;20539;-70
2021/12/26 12:18:36;;;;;;;1.10;1.03;;;8.70;98.00;;;;;;5069902;28;21026;-69
2021/12/26 12:21:15;;;;;;;1.20;1.10;;;8.90;98.00;;;;;;5070219;28;20451;-69
2021/12/26 12:23:59;;;;;;;1.10;1.10;;;8.90;98.00;;;;;;5072292;28;20460;-69
2021/12/26 12:26:44;;;;;;;1.20;1.03;;;9.00;98.00;;;;;;5072336;28;20488;-70
2021/12/26 12:29:14;;;;;;;1.10;1.00;;;9.00;98.00;;;;;;5072412;28;20489;-70
2021/12/26 12:31:43;;;;;;;1.20;1.10;;;9.20;98.00;;;;;;5072263;28;20589;-69
2021/12/26 12:34:13;;;;;;;1.33;1.00;;;9.30;98.00;;;;;;5072374;28;20486;-70
2021/12/26 12:36:42;;;;;;;2.13;1.10;;;9.40;98.00;;;;;;5072175;28;20554;-69
2021/12/26 12:39:16;;;;;;;1.60;1.47;;;9.50;98.00;;;;;;5071058;28;20499;-70
2021/12/26 12:41:45;;;;;;;1.20;1.00;;;9.50;98.00;;;;;;5072293;28;20514;-70
2021/12/26 12:44:28;;;;;;;2.70;1.40;;;9.70;98.00;;;;;;5072327;28;20460;-71
2021/12/26 12:47:01;;;;;;;1.20;1.00;;;9.70;98.00;;;;;;5072229;28;20956;-70
2021/12/26 12:49:48;;;;;;;1.20;1.00;;;9.70;98.00;;;;;;5072236;28;20560;-70
2021/12/26 12:52:38;;;;;;;1.20;1.13;;;9.70;98.00;;;;;;5070545;28;20459;-71
2021/12/26 12:55:06;;;;;;;2.47;1.23;;;9.60;98.00;;;;;;5071252;28;20464;-70
2021/12/26 12:57:36;;;;;;;1.20;0.90;;;9.70;98.00;;;;;;5071215;28;20452;-71
2021/12/26 13:00:05;;;;;;;2.33;1.73;;;9.70;98.00;;;;;;5071245;28;20955;-71
2021/12/26 13:02:37;;;;;;;1.30;1.10;;;9.60;98.00;;;;;;5071573;28;20472;-70
2021/12/26 13:05:06;;;;;;;1.20;1.00;;;9.50;98.00;;;;;;5071248;28;20458;-70
2021/12/26 13:07:34;;;;;;;4.13;1.57;;;9.50;98.00;;;;;;5071440;28;20605;-70
2021/12/26 13:10:10;;;;;;;1.33;1.20;;;9.40;98.00;;;;;;5071219;28;20570;-70
2021/12/26 13:12:37;;;;;;;1.17;0.97;;;9.40;98.00;;;;;;5071615;28;20838;-71
2021/12/26 13:15:06;;;;;;;1.37;1.00;;;9.30;98.00;;;;;;5071645;28;20843;-71